createdAt,value
2022-10-02T00:06:49.493Z,-24.4
2022-10-02T00:12:09.784Z,-25.3
2022-10-02T00:24:27.279Z,-24.6
2022-10-02T00:28:08.515Z,-24.4
2022-10-02T00:33:26.312Z,-24.3
2022-10-02T00:40:24.944Z,-24.8
2022-10-02T00:49:24.748Z,-23.9
2022-10-02T00:54:43.141Z,-24.4
2022-10-02T01:00:01.807Z,-24.4
2022-10-02T01:05:20.858Z,-24.4
2022-10-02T01:10:47.031Z,-25.1
2022-10-02T01:15:59.357Z,-24.8
2022-10-02T01:21:17.475Z,-24.3
2022-10-02T01:33:11.309Z,-24.8
2022-10-02T01:37:15.733Z,-24.2
2022-10-02T01:44:14.290Z,-24.2
2022-10-02T01:47:53.329Z,-24.5
2022-10-02T01:53:13.389Z,-24.1
2022-10-02T01:58:31.689Z,-23.9
2022-10-02T02:03:51.375Z,-24
2022-10-02T02:10:25.557Z,-25
2022-10-02T02:14:40.966Z,-24.2
2022-10-02T02:19:50.107Z,-24.7
2022-10-02T02:30:28.584Z,-24.4
2022-10-02T02:35:48.308Z,-24.8
2022-10-02T02:46:27.375Z,-25.5
2022-10-02T02:57:06.710Z,-24.2
2022-10-02T03:13:04.523Z,-24.9
2022-10-02T03:18:23.497Z,-27.3
2022-10-02T03:30:18.085Z,-24.8
2022-10-02T03:34:21.721Z,-25.4
2022-10-02T03:41:20.293Z,-23.8
2022-10-02T03:45:00.825Z,-24.3
2022-10-02T03:56:53.888Z,-24.7
2022-10-02T04:00:58.660Z,-24.3
2022-10-02T04:11:36.260Z,-24.2
2022-10-02T04:16:55.190Z,-24.4
2022-10-02T04:27:35.006Z,-24
2022-10-02T04:43:32.871Z,-24.3
2022-10-02T04:55:52.610Z,-24.3
2022-10-02T05:01:11.960Z,-28.9
2022-10-02T05:06:32.262Z,-24.6
2022-10-02T05:11:51.701Z,-24.7
2022-10-02T05:22:29.912Z,-24.4
2022-10-02T05:27:48.752Z,-24.1
2022-10-02T05:33:07.716Z,-25
2022-10-02T05:38:27.646Z,-24.8
2022-10-02T05:43:56.449Z,-24.7
2022-10-02T05:49:05.392Z,-24.8
2022-10-02T05:54:25.553Z,-21.9
2022-10-02T05:59:45.003Z,-22.1
2022-10-02T06:05:03.902Z,-21.5
2022-10-02T06:10:23.248Z,-15.7
2022-10-02T06:21:02.473Z,-13.4
2022-10-02T06:26:21.509Z,-12.5
2022-10-02T06:31:40.569Z,-14.2
2022-10-02T06:36:59.214Z,-11.9
2022-10-02T06:47:37.265Z,-7.8
2022-10-02T06:58:15.808Z,-4.8
2022-10-02T07:03:35.085Z,-7.1
2022-10-02T07:08:53.965Z,-4.9
2022-10-02T07:14:12.786Z,-3.2
2022-10-02T07:24:51.669Z,-5.4
2022-10-02T07:30:11.807Z,-9.39
2022-10-02T07:35:29.979Z,-9.39
2022-10-02T07:40:49.843Z,-0.1
2022-10-02T07:46:09.699Z,2.5
2022-10-02T07:51:28.011Z,6.4
2022-10-02T07:56:46.663Z,8.1
2022-10-02T08:07:25.291Z,20.8
2022-10-02T08:12:43.454Z,10.8
2022-10-02T08:23:22.186Z,6.3
2022-10-02T08:28:41.691Z,6.3
2022-10-02T08:35:15.795Z,14.6
2022-10-02T08:39:19.949Z,16.7
2022-10-02T08:51:13.553Z,33
2022-10-02T08:55:28.955Z,39.2
2022-10-02T09:07:10.265Z,22.2
2022-10-02T09:11:25.697Z,34.9
2022-10-02T09:18:24.294Z,39.59
2022-10-02T09:27:14.180Z,74
2022-10-02T09:32:33.415Z,49
2022-10-02T09:37:51.465Z,39.5
2022-10-02T09:49:44.766Z,54
2022-10-02T09:53:48.707Z,31.2
2022-10-02T10:00:47.334Z,16.6
2022-10-02T10:09:46.605Z,10.8
2022-10-02T10:15:08.713Z,11.7
2022-10-02T10:20:24.140Z,5.2
2022-10-02T10:25:43.613Z,39.8
2022-10-02T10:31:02.611Z,56
2022-10-02T10:36:21.470Z,54.9
2022-10-02T10:47:01.119Z,31.8
2022-10-02T10:52:19.867Z,32.59
2022-10-02T11:02:58.126Z,20.2
2022-10-02T11:08:16.818Z,15.1
2022-10-02T11:13:36.339Z,8.2
2022-10-02T11:18:55.091Z,5.6
2022-10-02T11:29:32.919Z,10.5
2022-10-02T11:34:51.925Z,10.5
2022-10-02T11:45:31.255Z,23.9
2022-10-02T11:50:49.617Z,52.7
2022-10-02T11:56:09.276Z,71
2022-10-02T12:01:27.365Z,27.7
2022-10-02T12:06:46.761Z,21.1
2022-10-02T12:12:05.939Z,37
2022-10-02T12:17:25.584Z,45.9
2022-10-02T12:28:02.878Z,4.6
2022-10-02T12:33:21.870Z,15
2022-10-02T12:38:41.550Z,29.1
2022-10-02T12:44:01.228Z,25
2022-10-02T12:55:55.412Z,28.2
2022-10-02T13:10:40.824Z,32.59
2022-10-02T13:15:58.608Z,12.3
2022-10-02T13:27:52.730Z,15.1
2022-10-02T13:31:58.036Z,19
2022-10-02T13:37:15.328Z,16.7
2022-10-02T13:42:35.456Z,7.3
2022-10-02T13:47:54.298Z,2.7
2022-10-02T13:53:13.853Z,-0.2
2022-10-02T14:03:52.140Z,1.1
2022-10-02T14:10:26.269Z,-2.2
2022-10-02T14:21:29.551Z,10.8
2022-10-02T14:30:28.880Z,9.89
2022-10-02T14:35:48.186Z,11.1
2022-10-02T14:41:07.101Z,-2.7
2022-10-02T14:47:41.231Z,-4.19
2022-10-02T14:51:45.713Z,-7.6
2022-10-02T14:57:04.370Z,-9
2022-10-02T15:02:23.682Z,-6.9
2022-10-02T15:08:57.842Z,-5.4
2022-10-02T15:22:09.026Z,-0.3
2022-10-02T15:28:59.935Z,-6
2022-10-02T15:34:18.484Z,-7.4
2022-10-02T15:44:55.601Z,-14.2
2022-10-02T15:50:15.286Z,-18.5
2022-10-02T15:55:34.378Z,-26
2022-10-02T16:00:53.991Z,-23.9
2022-10-02T16:11:33.297Z,-23.9
2022-10-02T16:16:52.063Z,-24.4
2022-10-02T16:22:15.665Z,-23.8
2022-10-02T16:27:30.297Z,-24.7
2022-10-02T16:32:49.757Z,-24.2
2022-10-02T16:43:28.019Z,-24.3
2022-10-02T16:48:47.324Z,-23.9
2022-10-02T16:54:06.896Z,-23.3
2022-10-02T16:59:24.856Z,-23.6
2022-10-02T17:10:03.535Z,-23
2022-10-02T17:15:23.057Z,-23.8
2022-10-02T17:20:41.930Z,-24.2
2022-10-02T17:26:01.639Z,-23.8
2022-10-02T17:31:21.186Z,-23.6
2022-10-02T17:36:41.512Z,-23.3
2022-10-02T17:42:01.014Z,-23.6
2022-10-02T17:52:39.927Z,-23.1
2022-10-02T17:57:57.998Z,-23.6
2022-10-02T18:08:38.019Z,-23.9
2022-10-02T18:15:12.185Z,-23.7
2022-10-02T18:24:36.659Z,-23.6
2022-10-02T18:29:54.232Z,-25.5
2022-10-02T18:35:13.310Z,-23.7
2022-10-02T18:40:31.293Z,-23.5
2022-10-02T18:51:10.572Z,-23.7
2022-10-02T18:56:28.837Z,-23.6
2022-10-02T19:01:48.583Z,-23.7
2022-10-02T19:07:06.871Z,-23.7
2022-10-02T19:12:25.931Z,-23.6
2022-10-02T19:17:46.238Z,-23.2
2022-10-02T19:23:04.189Z,-22.7
2022-10-02T19:33:43.727Z,-23.6
2022-10-02T19:39:02.041Z,-23.7
2022-10-02T19:49:40.565Z,-23.6
2022-10-02T19:55:00.070Z,-23.4
2022-10-02T20:00:19.098Z,-23.3
2022-10-02T20:05:38.796Z,-23.5
2022-10-02T20:10:58.417Z,-23.8
2022-10-02T20:16:17.448Z,-27.1
2022-10-02T20:26:57.399Z,-22.9
2022-10-02T20:32:15.369Z,-23.5
2022-10-02T20:42:54.362Z,-23.3
2022-10-02T20:53:34.221Z,-23.7
2022-10-02T20:58:52.570Z,-23.4
2022-10-02T21:04:12.518Z,-23.7
2022-10-02T21:09:32.251Z,-24
2022-10-02T21:14:50.496Z,-23.1
2022-10-02T21:20:10.492Z,-23.2
2022-10-02T21:25:30.312Z,-23.5
2022-10-02T21:30:48.534Z,-23.8
2022-10-02T21:36:07.635Z,-23.8
2022-10-02T21:41:26.847Z,-23
2022-10-02T21:46:46.216Z,-23.3
2022-10-02T21:52:06.429Z,-22.9
2022-10-02T21:57:24.764Z,-23.4
2022-10-02T22:08:03.929Z,-24.1
2022-10-02T22:13:22.941Z,-23.6
2022-10-02T22:18:42.285Z,-22.9
2022-10-02T22:24:02.645Z,-23.2
2022-10-02T22:34:41.018Z,-23.2
2022-10-02T22:40:00.688Z,-23.4
2022-10-02T22:50:38.545Z,-22.8
2022-10-02T22:55:58.483Z,-23.5
2022-10-02T23:02:32.678Z,-23.3
2022-10-02T23:06:48.030Z,-23.7
2022-10-02T23:08:29.441Z,-23.4
2022-10-02T23:19:07.206Z,-23.7
2022-10-02T23:24:27.183Z,-27.4
2022-10-02T23:35:05.137Z,-23.1
2022-10-02T23:40:25.227Z,-23.5
2022-10-02T23:45:44.098Z,-23.8
2022-10-02T23:51:02.255Z,-23.5
